Time;durP1;ratioP1;P1;durP2;ratioP2;P2;SDS_P1;SDS_P2;PMS_P1;PMS_P2;Temp;Humidity;BMP_temperature;BMP_pressure;BME280_temperature;BME280_humidity;BME280_pressure;Samples;Min_cycle;Max_cycle;Signal;HPM_P1;HPM_P2
2022/07/15 00:00:07;;;;;;;4.53;2.30;;;14.60;99.90;;;;;;5017796;28;20559;-74
2022/07/15 00:02:52;;;;;;;4.63;2.07;;;14.50;99.90;;;;;;5024935;28;20706;-74
2022/07/15 00:05:35;;;;;;;5.73;2.40;;;14.50;99.90;;;;;;5025856;28;20214;-73
2022/07/15 00:08:19;;;;;;;4.63;2.13;;;14.40;99.90;;;;;;5019161;28;20281;-75
2022/07/15 00:11:04;;;;;;;4.80;2.17;;;14.40;99.90;;;;;;5023932;28;20199;-74
2022/07/15 00:13:48;;;;;;;4.23;2.20;;;14.30;99.90;;;;;;5026795;28;20239;-74
2022/07/15 00:16:32;;;;;;;3.13;2.30;;;14.30;99.90;;;;;;5033812;28;20219;-74
2022/07/15 00:19:16;;;;;;;4.30;2.07;;;14.20;99.90;;;;;;5020453;28;20179;-74
2022/07/15 00:22:00;;;;;;;7.67;3.00;;;14.20;99.90;;;;;;5021866;28;20407;-75
2022/07/15 00:24:44;;;;;;;7.18;2.85;;;14.20;99.90;;;;;;5027060;28;20451;-73
2022/07/15 00:27:29;;;;;;;5.93;2.43;;;14.20;99.90;;;;;;5028353;28;20187;-74
2022/07/15 00:30:13;;;;;;;7.17;2.20;;;14.20;99.90;;;;;;5025484;28;20226;-73
2022/07/15 00:32:58;;;;;;;5.33;2.17;;;14.10;99.90;;;;;;5024870;28;20203;-74
2022/07/15 00:35:42;;;;;;;8.37;2.60;;;14.10;99.90;;;;;;5017528;28;20223;-72
2022/07/15 00:38:26;;;;;;;4.50;1.93;;;14.10;99.90;;;;;;5024101;28;20279;-74
2022/07/15 00:41:11;;;;;;;7.67;2.50;;;14.10;99.90;;;;;;5032369;28;20194;-74
2022/07/15 00:43:55;;;;;;;7.17;2.33;;;14.00;99.90;;;;;;5028757;28;20191;-76
2022/07/15 00:46:39;;;;;;;5.97;2.23;;;13.90;99.90;;;;;;5022089;28;20283;-74
2022/07/15 00:49:24;;;;;;;6.97;2.80;;;13.90;99.90;;;;;;5026734;28;20237;-74
2022/07/15 00:52:08;;;;;;;4.57;2.40;;;13.80;99.90;;;;;;5036480;28;20228;-76
2022/07/15 00:54:54;;;;;;;6.73;2.63;;;13.70;99.90;;;;;;5025516;28;20211;-74
2022/07/15 00:57:44;;;;;;;8.07;2.93;;;13.70;99.90;;;;;;5028195;28;20190;-75
2022/07/15 01:00:29;;;;;;;6.07;2.50;;;13.60;99.90;;;;;;5025154;28;20184;-73
2022/07/15 01:03:16;;;;;;;5.37;2.70;;;13.60;99.90;;;;;;5033408;28;20187;-74
2022/07/15 01:06:01;;;;;;;10.00;2.97;;;13.60;99.90;;;;;;5027768;28;20270;-73
2022/07/15 01:08:45;;;;;;;7.33;2.70;;;13.50;99.90;;;;;;5024175;28;20195;-74
2022/07/15 01:11:30;;;;;;;4.80;2.43;;;13.50;99.90;;;;;;5027831;28;20183;-72
2022/07/15 01:14:14;;;;;;;5.33;3.03;;;13.40;99.90;;;;;;5028301;28;20250;-73
2022/07/15 01:16:58;;;;;;;4.67;2.50;;;13.40;99.90;;;;;;5019297;28;20223;-75
2022/07/15 01:19:42;;;;;;;6.03;2.53;;;13.30;99.90;;;;;;5016369;28;20188;-74
2022/07/15 01:22:27;;;;;;;4.50;2.70;;;13.20;99.90;;;;;;5027836;28;20242;-73
2022/07/15 01:25:11;;;;;;;3.57;2.47;;;13.20;99.90;;;;;;5037114;28;20305;-75
2022/07/15 01:27:56;;;;;;;5.60;2.70;;;13.10;99.90;;;;;;5039688;28;20242;-74
2022/07/15 01:30:40;;;;;;;6.77;3.20;;;13.10;99.90;;;;;;5029460;28;20674;-73
2022/07/15 01:33:25;;;;;;;6.13;3.17;;;13.10;99.90;;;;;;5020809;28;20577;-73
2022/07/15 01:36:10;;;;;;;6.13;2.90;;;13.10;99.90;;;;;;5023337;28;20227;-74
2022/07/15 01:38:54;;;;;;;9.40;3.60;;;13.10;99.90;;;;;;5029504;28;20203;-73
2022/07/15 01:41:38;;;;;;;10.53;3.17;;;13.10;99.90;;;;;;5034209;28;20195;-74
2022/07/15 01:44:22;;;;;;;7.47;2.90;;;13.10;99.90;;;;;;5028746;28;20187;-74
2022/07/15 01:47:06;;;;;;;5.50;2.83;;;13.10;99.90;;;;;;5027924;28;20278;-74
2022/07/15 01:49:50;;;;;;;9.90;3.03;;;13.10;99.90;;;;;;5024177;28;20221;-74
2022/07/15 01:52:34;;;;;;;11.73;3.47;;;13.10;99.90;;;;;;5028320;28;20181;-74
2022/07/15 01:55:19;;;;;;;4.67;2.83;;;13.10;99.90;;;;;;5026042;28;20371;-73
2022/07/15 01:58:03;;;;;;;7.43;3.63;;;13.20;99.90;;;;;;5030659;28;20192;-73
2022/07/15 02:00:49;;;;;;;6.10;3.13;;;13.10;99.90;;;;;;5020114;28;20196;-73
2022/07/15 02:03:33;;;;;;;5.47;2.80;;;13.10;99.90;;;;;;5028132;28;20227;-74
2022/07/15 02:06:17;;;;;;;5.97;3.00;;;13.10;99.90;;;;;;5028231;28;20224;-75
2022/07/15 02:09:01;;;;;;;11.03;4.33;;;13.20;99.90;;;;;;5030333;28;20719;-75
2022/07/15 02:11:46;;;;;;;8.67;2.90;;;13.20;99.90;;;;;;5028681;28;20203;-74
2022/07/15 02:14:30;;;;;;;4.87;3.23;;;13.20;99.90;;;;;;5025113;28;20607;-74
2022/07/15 02:17:14;;;;;;;8.23;2.73;;;13.20;99.90;;;;;;5023250;28;20264;-73
2022/07/15 02:19:58;;;;;;;6.77;3.57;;;13.20;99.90;;;;;;5026425;28;20195;-73
2022/07/15 02:22:43;;;;;;;9.03;3.30;;;13.20;99.90;;;;;;5028495;28;20203;-75
2022/07/15 02:25:30;;;;;;;8.90;3.90;;;13.20;99.90;;;;;;5019883;28;20334;-75
2022/07/15 02:28:14;;;;;;;5.93;3.37;;;13.20;99.90;;;;;;5020769;28;20315;-75
2022/07/15 02:30:58;;;;;;;7.63;2.97;;;13.20;99.90;;;;;;5029301;28;20191;-73
2022/07/15 02:33:42;;;;;;;7.33;3.40;;;13.20;99.90;;;;;;5029042;28;20192;-74
2022/07/15 02:36:27;;;;;;;8.27;2.77;;;13.20;99.90;;;;;;5026251;28;20239;-74
2022/07/15 02:39:11;;;;;;;6.27;2.90;;;13.20;99.90;;;;;;5035171;28;20557;-74
2022/07/15 02:41:55;;;;;;;5.87;3.20;;;13.20;99.90;;;;;;5034457;28;20203;-73
2022/07/15 02:44:39;;;;;;;7.60;3.37;;;13.20;99.90;;;;;;5027401;28;20191;-74
2022/07/15 02:47:23;;;;;;;10.63;3.27;;;13.20;99.90;;;;;;5021826;28;20216;-74
2022/07/15 02:50:08;;;;;;;6.30;2.83;;;13.20;99.90;;;;;;5026388;28;20202;-73
2022/07/15 02:52:52;;;;;;;9.57;3.57;;;13.20;99.90;;;;;;5017856;28;20311;-74
2022/07/15 02:55:36;;;;;;;10.77;3.20;;;13.20;99.90;;;;;;5029921;28;20246;-74
2022/07/15 02:58:20;;;;;;;4.97;2.47;;;13.20;99.90;;;;;;5027779;28;20589;-73
2022/07/15 03:01:04;;;;;;;8.27;3.00;;;13.20;99.90;;;;;;5031855;28;20191;-74
2022/07/15 03:03:48;;;;;;;8.37;2.97;;;13.20;99.90;;;;;;5026032;28;20191;-73
2022/07/15 03:06:33;;;;;;;11.73;3.30;;;13.20;99.90;;;;;;5026398;28;20234;-74
2022/07/15 03:09:17;;;;;;;5.83;2.93;;;13.20;99.90;;;;;;5028894;28;20219;-74
2022/07/15 03:12:01;;;;;;;8.83;3.73;;;13.10;99.90;;;;;;5024351;28;20230;-74
2022/07/15 03:14:46;;;;;;;7.03;3.00;;;13.20;99.90;;;;;;5016985;28;20200;-73
2022/07/15 03:17:30;;;;;;;4.33;2.67;;;13.10;99.90;;;;;;5025943;28;20188;-74
2022/07/15 03:20:14;;;;;;;7.97;2.90;;;13.20;99.90;;;;;;5032105;28;20233;-74
2022/07/15 03:22:58;;;;;;;8.00;2.77;;;13.20;99.90;;;;;;5027829;28;20191;-73
2022/07/15 03:25:42;;;;;;;10.07;3.17;;;13.10;99.90;;;;;;5027958;28;20207;-74
2022/07/15 03:28:26;;;;;;;6.67;3.20;;;13.10;99.90;;;;;;5027041;28;20191;-73
2022/07/15 03:31:11;;;;;;;6.80;2.90;;;13.10;99.90;;;;;;5028100;28;20558;-75
2022/07/15 03:33:55;;;;;;;7.40;3.05;;;13.10;99.90;;;;;;5025643;28;20399;-73
2022/07/15 03:36:40;;;;;;;7.97;3.22;;;13.20;99.90;;;;;;5022803;28;20477;-74
2022/07/15 03:39:25;;;;;;;6.20;2.70;;;13.20;99.90;;;;;;5025318;28;20242;-74
2022/07/15 03:42:09;;;;;;;7.83;2.30;;;13.20;99.90;;;;;;5030459;28;20268;-74
2022/07/15 03:44:53;;;;;;;12.13;3.70;;;13.20;99.90;;;;;;5027032;28;20737;-74
2022/07/15 03:47:38;;;;;;;7.23;2.27;;;13.20;99.90;;;;;;5027198;28;20179;-74
2022/07/15 03:50:22;;;;;;;9.07;2.50;;;13.20;99.90;;;;;;5026269;28;20190;-73
2022/07/15 03:53:06;;;;;;;7.73;2.87;;;13.20;99.90;;;;;;5030189;28;20207;-73
2022/07/15 03:55:50;;;;;;;11.23;3.37;;;13.20;99.90;;;;;;5026272;28;20253;-74
2022/07/15 03:58:34;;;;;;;6.73;2.67;;;13.20;99.90;;;;;;5031183;28;20190;-75
2022/07/15 04:01:20;;;;;;;7.33;2.67;;;13.20;99.90;;;;;;5028865;28;20182;-73
2022/07/15 04:04:04;;;;;;;7.60;2.70;;;13.20;99.90;;;;;;5025518;28;20179;-75
2022/07/15 04:06:48;;;;;;;10.10;2.67;;;13.20;99.90;;;;;;5020191;28;20246;-74
2022/07/15 04:09:32;;;;;;;7.30;2.63;;;13.20;99.90;;;;;;5020816;28;20687;-74
2022/07/15 04:12:16;;;;;;;7.73;2.87;;;13.20;99.90;;;;;;5024921;28;20210;-73
2022/07/15 04:15:00;;;;;;;10.20;2.90;;;13.20;99.90;;;;;;5023843;28;20218;-72
2022/07/15 04:17:44;;;;;;;9.77;2.70;;;13.10;99.90;;;;;;5030226;28;20252;-73
2022/07/15 04:20:29;;;;;;;7.78;3.08;;;13.20;99.90;;;;;;5025319;28;20452;-71
2022/07/15 04:23:13;;;;;;;8.07;2.60;;;13.20;99.90;;;;;;5028429;28;20222;-73
2022/07/15 04:25:57;;;;;;;8.63;2.70;;;13.20;99.90;;;;;;5013353;28;20257;-73
2022/07/15 04:28:41;;;;;;;10.30;2.97;;;13.20;99.90;;;;;;5025330;28;20261;-72
2022/07/15 04:31:25;;;;;;;4.83;2.30;;;13.20;99.90;;;;;;5016630;28;20692;-72
2022/07/15 04:34:09;;;;;;;6.27;2.20;;;13.30;99.90;;;;;;5025836;28;20230;-72
2022/07/15 04:36:53;;;;;;;8.23;2.60;;;13.30;99.90;;;;;;5023454;28;20222;-72
2022/07/15 04:39:37;;;;;;;11.10;2.33;;;13.30;99.90;;;;;;5026426;28;20183;-72
2022/07/15 04:42:21;;;;;;;9.00;2.87;;;13.40;99.90;;;;;;5023631;28;20191;-72
2022/07/15 04:45:05;;;;;;;8.43;2.60;;;13.40;99.90;;;;;;5033151;28;20199;-72
2022/07/15 04:47:49;;;;;;;5.07;2.20;;;13.40;99.90;;;;;;5032354;28;20188;-72
2022/07/15 04:50:45;;;;;;;7.17;2.60;;;13.40;99.90;;;;;;5029024;28;20242;-72
2022/07/15 04:53:29;;;;;;;6.27;2.30;;;13.40;99.90;;;;;;5026613;28;20293;-72
2022/07/15 04:56:15;;;;;;;7.40;2.40;;;13.40;99.90;;;;;;5025802;28;20313;-72
2022/07/15 04:58:59;;;;;;;4.27;2.10;;;13.50;99.90;;;;;;5044010;28;20192;-72
2022/07/15 05:01:43;;;;;;;7.33;2.07;;;13.50;99.90;;;;;;5031874;28;20198;-73
2022/07/15 05:04:27;;;;;;;6.40;2.20;;;13.50;99.90;;;;;;5029640;28;20198;-72
2022/07/15 05:07:11;;;;;;;7.27;2.10;;;13.50;99.90;;;;;;5032752;28;20233;-72
2022/07/15 05:09:55;;;;;;;9.03;2.50;;;13.50;99.90;;;;;;5028902;28;20196;-72
2022/07/15 05:12:39;;;;;;;7.77;2.37;;;13.60;99.90;;;;;;5037578;28;20195;-72
2022/07/15 05:15:23;;;;;;;10.17;2.17;;;13.60;99.90;;;;;;5041880;28;20230;-72
2022/07/15 05:18:07;;;;;;;10.03;2.50;;;13.60;99.90;;;;;;5025016;28;20698;-72
2022/07/15 05:20:52;;;;;;;5.47;1.90;;;13.70;99.90;;;;;;5026296;28;20724;-71
2022/07/15 05:23:36;;;;;;;10.20;2.00;;;13.70;99.90;;;;;;5034169;28;20191;-72
2022/07/15 05:26:20;;;;;;;10.30;1.97;;;13.70;99.90;;;;;;5031433;28;20222;-72
2022/07/15 05:29:04;;;;;;;5.00;2.30;;;13.70;99.90;;;;;;5024801;28;20208;-71
2022/07/15 05:31:49;;;;;;;11.13;3.70;;;13.70;99.90;;;;;;5028618;28;20459;-72
2022/07/15 05:34:33;;;;;;;12.50;2.73;;;13.80;99.90;;;;;;5021151;28;20191;-71
2022/07/15 05:37:17;;;;;;;4.83;1.93;;;13.80;99.90;;;;;;5022932;28;20265;-72
2022/07/15 05:40:02;;;;;;;12.13;2.90;;;13.90;99.90;;;;;;5024642;28;20238;-72
2022/07/15 05:42:46;;;;;;;4.80;2.00;;;13.90;99.90;;;;;;5029232;28;20246;-72
2022/07/15 05:45:30;;;;;;;7.33;1.93;;;13.90;99.90;;;;;;5023249;28;20298;-72
2022/07/15 05:48:14;;;;;;;5.17;1.70;;;14.00;99.90;;;;;;5021542;28;20188;-71
2022/07/15 05:50:58;;;;;;;8.20;2.27;;;14.00;99.90;;;;;;5023183;28;20268;-72
2022/07/15 05:53:42;;;;;;;7.57;2.10;;;14.10;99.90;;;;;;5033439;28;20190;-71
2022/07/15 05:56:26;;;;;;;6.90;2.20;;;14.10;99.90;;;;;;5019453;28;20226;-71
2022/07/15 05:59:10;;;;;;;6.43;1.90;;;14.10;99.90;;;;;;5025826;28;20277;-71
2022/07/15 06:01:54;;;;;;;9.67;2.13;;;14.20;99.90;;;;;;5026148;28;20187;-71
2022/07/15 06:04:39;;;;;;;4.43;1.80;;;14.20;99.90;;;;;;5042030;28;20237;-71
2022/07/15 06:07:23;;;;;;;4.87;2.20;;;14.30;99.90;;;;;;5032715;28;20266;-72
2022/07/15 06:10:08;;;;;;;13.33;2.50;;;14.40;99.90;;;;;;5034742;28;20298;-71
2022/07/15 06:12:55;;;;;;;10.00;2.27;;;14.40;99.90;;;;;;5039501;28;20253;-71
2022/07/15 06:15:39;;;;;;;12.17;2.47;;;14.50;99.90;;;;;;5032679;28;20230;-71
2022/07/15 06:18:23;;;;;;;4.67;1.63;;;14.60;99.90;;;;;;5024916;28;20593;-71
2022/07/15 06:21:07;;;;;;;8.63;1.80;;;14.70;99.90;;;;;;5024757;28;20199;-71
2022/07/15 06:23:51;;;;;;;8.07;1.90;;;14.90;99.90;;;;;;5030866;28;20215;-70
2022/07/15 06:26:35;;;;;;;10.17;2.60;;;15.00;99.90;;;;;;5016226;28;20259;-71
2022/07/15 06:29:19;;;;;;;6.97;1.60;;;15.10;99.90;;;;;;5020382;28;20196;-71
2022/07/15 06:32:04;;;;;;;7.43;2.00;;;15.20;99.90;;;;;;5028523;28;20203;-72
2022/07/15 06:34:48;;;;;;;8.60;1.87;;;15.30;99.90;;;;;;5036713;28;20678;-71
2022/07/15 06:37:32;;;;;;;5.77;1.63;;;15.30;99.90;;;;;;5035275;28;20191;-71
2022/07/15 06:40:17;;;;;;;9.23;1.70;;;15.40;99.90;;;;;;5023332;28;20238;-71
2022/07/15 06:43:01;;;;;;;6.23;1.40;;;15.40;99.90;;;;;;5020003;28;20558;-71
2022/07/15 06:45:45;;;;;;;7.43;1.70;;;15.50;99.90;;;;;;5026784;28;20214;-71
2022/07/15 06:48:29;;;;;;;6.07;1.20;;;15.50;99.90;;;;;;5026636;28;20188;-71
2022/07/15 06:51:13;;;;;;;6.60;1.77;;;15.50;99.90;;;;;;5024708;28;20187;-72
2022/07/15 06:53:58;;;;;;;5.13;1.53;;;15.50;99.90;;;;;;5025836;28;20215;-71
2022/07/15 06:56:42;;;;;;;3.23;1.43;;;15.60;99.90;;;;;;5019637;28;20266;-71
2022/07/15 06:59:26;;;;;;;4.23;1.50;;;15.70;99.90;;;;;;5025136;28;20215;-72
2022/07/15 07:02:10;;;;;;;3.10;1.47;;;15.80;99.90;;;;;;5034278;28;20771;-72
2022/07/15 07:04:54;;;;;;;3.57;1.50;;;15.90;99.90;;;;;;5029241;28;20241;-71
2022/07/15 07:07:39;;;;;;;8.47;1.50;;;16.00;99.90;;;;;;5024303;28;20655;-71
2022/07/15 07:10:23;;;;;;;4.40;1.17;;;16.10;99.90;;;;;;5032825;28;20718;-72
2022/07/15 07:13:07;;;;;;;4.47;1.20;;;16.10;99.90;;;;;;5030703;28;20186;-71
2022/07/15 07:15:51;;;;;;;4.43;1.23;;;16.20;99.90;;;;;;5040912;28;20344;-71
2022/07/15 07:18:36;;;;;;;4.50;0.90;;;16.20;99.90;;;;;;5026192;28;20183;-71
2022/07/15 07:21:20;;;;;;;5.70;1.00;;;16.20;99.90;;;;;;5034180;28;20191;-71
2022/07/15 07:24:04;;;;;;;4.47;0.90;;;16.20;99.90;;;;;;5029628;28;20179;-72
2022/07/15 07:26:49;;;;;;;3.10;1.07;;;16.30;99.90;;;;;;5024630;28;20225;-72
2022/07/15 07:29:33;;;;;;;7.13;1.47;;;16.30;99.90;;;;;;5034526;28;20249;-72
2022/07/15 07:32:17;;;;;;;3.27;0.80;;;16.30;99.90;;;;;;5027746;28;20195;-72
2022/07/15 07:35:01;;;;;;;2.40;0.90;;;16.30;99.90;;;;;;5026097;28;20199;-72
2022/07/15 07:37:45;;;;;;;3.97;0.80;;;16.40;99.90;;;;;;5032609;28;20234;-72
2022/07/15 07:40:29;;;;;;;5.57;0.83;;;16.50;99.90;;;;;;5018120;28;20212;-70
2022/07/15 07:43:15;;;;;;;2.83;1.10;;;16.50;99.90;;;;;;5021910;28;20242;-71
2022/07/15 07:46:00;;;;;;;1.33;0.93;;;16.60;99.90;;;;;;5030734;28;20227;-71
2022/07/15 07:48:43;;;;;;;2.23;0.60;;;16.70;99.90;;;;;;5023860;28;20272;-71
2022/07/15 07:51:27;;;;;;;2.43;0.57;;;16.70;99.90;;;;;;5028115;28;20663;-71
2022/07/15 07:54:12;;;;;;;5.73;0.70;;;16.80;99.90;;;;;;5025259;28;20234;-72
2022/07/15 07:56:56;;;;;;;1.13;0.50;;;16.80;99.90;;;;;;5023914;28;20275;-71
2022/07/15 07:59:40;;;;;;;3.10;0.47;;;16.90;99.90;;;;;;5014486;28;20191;-71
2022/07/15 08:02:24;;;;;;;4.50;0.70;;;16.90;99.90;;;;;;5026657;28;20180;-72
2022/07/15 08:05:09;;;;;;;6.33;0.70;;;17.00;99.90;;;;;;5029449;28;20190;-72
2022/07/15 08:08:09;;;;;;;4.00;0.60;;;17.00;99.90;;;;;;5034896;28;20558;-72
2022/07/15 08:10:55;;;;;;;4.33;0.80;;;17.00;99.90;;;;;;5029257;28;20199;-72
2022/07/15 08:13:39;;;;;;;1.50;0.53;;;17.00;99.90;;;;;;5026233;28;20224;-72
2022/07/15 08:16:24;;;;;;;2.47;0.67;;;17.10;99.90;;;;;;5027485;28;20264;-72
2022/07/15 08:19:08;;;;;;;3.50;0.73;;;17.10;99.90;;;;;;5029938;28;20190;-72
2022/07/15 08:21:53;;;;;;;4.47;1.27;;;17.20;99.90;;;;;;5030940;28;20265;-71
2022/07/15 08:24:37;;;;;;;2.20;0.60;;;17.20;99.90;;;;;;5031684;28;20234;-72
2022/07/15 08:27:21;;;;;;;1.73;0.40;;;17.20;99.90;;;;;;5028360;28;20227;-72
2022/07/15 08:30:06;;;;;;;2.70;0.50;;;17.20;99.90;;;;;;5028034;28;20219;-72
2022/07/15 08:32:50;;;;;;;4.43;0.50;;;17.20;99.90;;;;;;5026562;28;20271;-72
2022/07/15 08:35:35;;;;;;;3.20;0.70;;;17.20;99.90;;;;;;5021704;28;20309;-72
2022/07/15 08:38:18;;;;;;;29.30;3.63;;;17.20;99.90;;;;;;5027391;28;20191;-72
2022/07/15 08:41:02;;;;;;;1.83;0.63;;;17.20;99.90;;;;;;5025210;28;20261;-72
2022/07/15 08:43:47;;;;;;;4.07;0.70;;;17.20;99.90;;;;;;5027100;28;20775;-71
2022/07/15 08:46:33;;;;;;;3.93;0.80;;;17.20;99.90;;;;;;5035005;28;20261;-71
2022/07/15 08:49:19;;;;;;;16.93;1.77;;;17.20;99.90;;;;;;5029212;28;20190;-72
2022/07/15 08:52:04;;;;;;;3.63;0.80;;;17.20;99.90;;;;;;5027944;28;20191;-72
2022/07/15 08:54:48;;;;;;;1.50;0.43;;;17.20;99.90;;;;;;5025636;28;20234;-72
2022/07/15 08:57:33;;;;;;;1.67;0.50;;;17.30;99.90;;;;;;5026520;28;20186;-71
2022/07/15 09:00:18;;;;;;;6.70;1.10;;;17.30;99.90;;;;;;5028013;28;20184;-72
2022/07/15 09:03:06;;;;;;;2.20;0.50;;;17.40;99.90;;;;;;5032996;28;20199;-72
2022/07/15 09:05:50;;;;;;;3.90;0.53;;;17.40;99.90;;;;;;5027345;28;20265;-72
2022/07/15 09:08:34;;;;;;;1.77;0.50;;;17.50;99.90;;;;;;5029224;28;20199;-72
2022/07/15 09:11:27;;;;;;;7.93;0.60;;;17.60;99.90;;;;;;5021473;28;20565;-72
2022/07/15 09:14:13;;;;;;;2.50;0.80;;;17.60;99.90;;;;;;5027978;28;20187;-72
2022/07/15 09:17:10;;;;;;;3.70;0.70;;;17.70;99.90;;;;;;5030275;28;20371;-72
2022/07/15 09:19:57;;;;;;;6.50;0.80;;;17.70;99.90;;;;;;5025249;28;20243;-72
2022/07/15 09:22:55;;;;;;;4.40;0.70;;;17.90;99.90;;;;;;5025398;28;20265;-71
2022/07/15 09:25:39;;;;;;;5.50;0.60;;;18.00;99.90;;;;;;5018839;28;20634;-71
2022/07/15 09:28:39;;;;;;;14.13;1.27;;;18.00;99.90;;;;;;5025009;28;20575;-71
2022/07/15 09:34:35;;;;;;;7.13;1.03;;;18.10;99.90;;;;;;5017325;28;20310;-71
2022/07/15 09:37:19;;;;;;;2.30;0.60;;;18.10;99.90;;;;;;5017863;28;20234;-72
2022/07/15 09:40:03;;;;;;;2.47;0.50;;;18.10;99.90;;;;;;5031136;28;20282;-71
2022/07/15 09:43:06;;;;;;;2.23;0.80;;;18.10;99.90;;;;;;5021334;28;20195;-72
2022/07/15 09:46:01;;;;;;;7.00;0.77;;;18.00;99.90;;;;;;5029843;28;20295;-71
2022/07/15 09:48:47;;;;;;;1.47;0.50;;;18.00;99.90;;;;;;5023737;28;20187;-71
2022/07/15 09:51:43;;;;;;;4.17;0.50;;;17.80;99.90;;;;;;5024155;28;20187;-71
2022/07/15 09:54:36;;;;;;;2.63;0.57;;;17.60;99.90;;;;;;5022433;28;20311;-72
2022/07/15 09:57:21;;;;;;;1.83;0.47;;;17.50;99.90;;;;;;5031240;28;20266;-72
2022/07/15 10:00:06;;;;;;;3.17;0.60;;;17.40;99.90;;;;;;5040454;28;20319;-72
2022/07/15 10:02:51;;;;;;;5.47;0.70;;;17.40;99.90;;;;;;5031340;28;20188;-72
2022/07/15 10:05:36;;;;;;;5.83;0.60;;;17.40;99.90;;;;;;5027954;28;20226;-72
2022/07/15 10:08:21;;;;;;;2.83;0.70;;;17.40;99.90;;;;;;5022995;28;20187;-72
2022/07/15 10:11:09;;;;;;;8.33;0.77;;;17.40;99.90;;;;;;5032876;28;20198;-72
2022/07/15 10:14:09;;;;;;;4.83;0.90;;;17.50;99.90;;;;;;5033217;28;20210;-71
2022/07/15 10:17:23;;;;;;;8.10;1.00;;;17.60;99.90;;;;;;5024866;28;20254;-71
2022/07/15 10:20:22;;;;;;;6.27;0.50;;;17.80;99.90;;;;;;5025446;28;20231;-72
2022/07/15 10:23:28;;;;;;;3.07;0.50;;;17.80;99.90;;;;;;5028770;28;20552;-72
2022/07/15 10:26:20;;;;;;;3.40;0.43;;;17.90;99.90;;;;;;5023417;28;20230;-72
2022/07/15 10:29:06;;;;;;;2.10;0.50;;;18.10;99.90;;;;;;5026519;28;20188;-73
2022/07/15 10:31:59;;;;;;;4.17;0.40;;;18.30;99.90;;;;;;5016250;28;20237;-73
2022/07/15 10:34:43;;;;;;;2.80;0.57;;;18.40;99.90;;;;;;5033844;28;20306;-73
2022/07/15 10:37:28;;;;;;;5.13;0.50;;;18.50;99.90;;;;;;5036542;28;20203;-72
2022/07/15 10:40:12;;;;;;;3.63;0.67;;;18.50;99.90;;;;;;5020381;28;20187;-72
2022/07/15 10:42:59;;;;;;;0.93;0.30;;;18.60;99.90;;;;;;5024660;28;20746;-72
2022/07/15 10:46:03;;;;;;;2.88;0.47;;;18.60;99.90;;;;;;5028653;28;20235;-72
2022/07/15 10:48:48;;;;;;;2.43;0.40;;;18.70;99.90;;;;;;5027830;28;20686;-72
2022/07/15 10:51:35;;;;;;;6.70;0.60;;;18.70;99.90;;;;;;5020292;28;20194;-72
2022/07/15 10:54:20;;;;;;;1.00;0.43;;;18.70;99.90;;;;;;5028117;28;20186;-73
2022/07/15 10:57:05;;;;;;;3.20;0.50;;;18.50;99.90;;;;;;5030426;28;20226;-72
2022/07/15 10:59:55;;;;;;;2.57;0.40;;;18.30;99.90;;;;;;5030703;28;20196;-72
2022/07/15 11:03:12;;;;;;;1.67;0.50;;;18.10;99.90;;;;;;5036961;28;20235;-73
2022/07/15 11:06:04;;;;;;;1.90;0.47;;;18.00;99.90;;;;;;5030072;28;20227;-72
2022/07/15 11:08:49;;;;;;;2.60;0.50;;;18.00;99.90;;;;;;5025086;28;20695;-72
2022/07/15 11:11:42;;;;;;;4.87;0.70;;;18.00;99.90;;;;;;5027089;28;20245;-72
2022/07/15 11:14:49;;;;;;;26.97;2.17;;;18.10;99.90;;;;;;5027603;28;20192;-72
2022/07/15 11:17:33;;;;;;;6.37;1.23;;;18.00;99.90;;;;;;5027977;28;20579;-72
2022/07/15 11:20:28;;;;;;;1.20;0.57;;;18.00;99.90;;;;;;5030211;28;20187;-73
2022/07/15 11:23:12;;;;;;;14.30;1.87;;;18.00;99.90;;;;;;5022965;28;20187;-72
2022/07/15 11:25:56;;;;;;;8.63;0.90;;;17.80;99.90;;;;;;5029873;28;20219;-72
2022/07/15 11:28:54;;;;;;;12.20;1.67;;;17.70;99.90;;;;;;5025768;28;20246;-73
2022/07/15 11:31:42;;;;;;;19.83;2.40;;;17.50;99.90;;;;;;5025536;28;20283;-73
2022/07/15 11:34:44;;;;;;;4.53;0.90;;;17.40;99.90;;;;;;5024809;28;20207;-73
2022/07/15 11:37:34;;;;;;;16.27;2.70;;;17.30;99.90;;;;;;5025543;28;20341;-72
2022/07/15 11:46:32;;;;;;;1.97;0.40;;;17.10;99.90;;;;;;5026315;28;20330;-73
2022/07/15 11:49:27;;;;;;;1.83;0.40;;;17.10;99.90;;;;;;5029567;28;20198;-73
2022/07/15 11:52:22;;;;;;;0.40;0.40;;;17.20;99.90;;;;;;5030082;28;20271;-73
2022/07/15 11:55:07;;;;;;;1.90;0.90;;;17.20;99.90;;;;;;5024384;28;20241;-73
2022/07/15 11:57:51;;;;;;;2.13;0.53;;;17.30;99.90;;;;;;5027445;28;20203;-73
2022/07/15 12:00:35;;;;;;;1.63;0.30;;;17.40;99.90;;;;;;5026265;28;20548;-73
2022/07/15 12:03:20;;;;;;;1.87;0.50;;;17.40;99.90;;;;;;5017468;28;20187;-72
2022/07/15 12:06:27;;;;;;;1.90;0.30;;;17.50;99.90;;;;;;5029391;28;20215;-74
2022/07/15 12:09:11;;;;;;;0.70;0.43;;;17.60;99.90;;;;;;5020655;28;20699;-74
2022/07/15 12:12:02;;;;;;;4.83;0.50;;;17.70;99.90;;;;;;5026215;28;20187;-73
2022/07/15 12:14:50;;;;;;;0.30;0.30;;;17.80;99.90;;;;;;5029377;28;20554;-74
2022/07/15 12:17:35;;;;;;;4.37;0.60;;;17.80;99.90;;;;;;5023935;28;20204;-73
2022/07/15 12:20:20;;;;;;;3.90;0.77;;;17.90;99.90;;;;;;5026678;28;20203;-73
2022/07/15 12:23:06;;;;;;;3.67;0.63;;;17.90;99.90;;;;;;5020146;28;20180;-72
2022/07/15 12:26:08;;;;;;;2.33;0.40;;;18.00;99.90;;;;;;5017973;28;20266;-73
2022/07/15 12:28:58;;;;;;;4.83;0.60;;;18.00;99.90;;;;;;5025760;28;20183;-73
2022/07/15 12:31:55;;;;;;;3.90;0.50;;;18.00;99.90;;;;;;5021031;28;20195;-73
2022/07/15 12:34:46;;;;;;;2.00;0.40;;;18.10;99.90;;;;;;5020209;28;20195;-73
2022/07/15 12:37:30;;;;;;;1.87;0.43;;;18.20;99.90;;;;;;5027233;28;20207;-72
2022/07/15 12:40:22;;;;;;;2.43;0.50;;;18.20;99.90;;;;;;5023816;28;20203;-73
2022/07/15 12:43:08;;;;;;;1.10;0.50;;;18.20;99.90;;;;;;5031871;28;20623;-73
2022/07/15 12:45:53;;;;;;;1.20;0.40;;;18.30;99.90;;;;;;5038918;28;20209;-73
2022/07/15 12:48:47;;;;;;;2.70;0.47;;;18.40;99.90;;;;;;5025725;28;20400;-73
2022/07/15 12:51:31;;;;;;;4.00;0.80;;;18.40;99.90;;;;;;5021671;28;20226;-73
2022/07/15 12:54:16;;;;;;;1.13;0.50;;;18.50;99.90;;;;;;5016793;28;20184;-74
2022/07/15 12:56:59;;;;;;;0.43;0.33;;;18.70;99.90;;;;;;5027582;28;20222;-73
2022/07/15 12:59:51;;;;;;;1.23;0.33;;;18.80;99.90;;;;;;5034065;28;20182;-73
2022/07/15 13:03:03;;;;;;;2.77;0.57;;;18.80;99.90;;;;;;5033063;28;20275;-73
2022/07/15 13:05:51;;;;;;;2.57;0.47;;;19.00;99.90;;;;;;5017907;28;20362;-73
2022/07/15 13:08:37;;;;;;;0.47;0.47;;;18.90;99.90;;;;;;5026791;28;20200;-73
2022/07/15 13:11:24;;;;;;;2.30;0.40;;;18.70;99.90;;;;;;5023401;28;20207;-74
2022/07/15 13:14:08;;;;;;;3.37;0.33;;;18.60;99.90;;;;;;5026121;28;20192;-73
2022/07/15 13:16:52;;;;;;;2.03;0.70;;;18.40;99.90;;;;;;5023875;28;20227;-73
2022/07/15 13:19:36;;;;;;;1.63;0.60;;;18.20;99.90;;;;;;5028621;28;20179;-73
2022/07/15 13:22:20;;;;;;;1.53;0.40;;;18.10;99.90;;;;;;5028493;28;20183;-73
2022/07/15 13:25:05;;;;;;;1.47;0.40;;;18.00;99.90;;;;;;5017037;28;20269;-73
2022/07/15 13:27:49;;;;;;;1.43;0.40;;;18.00;99.90;;;;;;5035704;28;20268;-73
2022/07/15 13:30:34;;;;;;;2.53;0.43;;;17.90;99.90;;;;;;5030902;28;20258;-73
2022/07/15 13:33:18;;;;;;;1.63;0.60;;;17.80;99.90;;;;;;5032059;28;20199;-73
2022/07/15 13:36:03;;;;;;;1.03;0.50;;;17.80;99.90;;;;;;5023389;28;20342;-73
2022/07/15 13:38:47;;;;;;;1.10;0.47;;;17.80;99.90;;;;;;5027784;28;20191;-73
2022/07/15 13:41:32;;;;;;;1.97;0.67;;;17.70;99.90;;;;;;5028375;28;20245;-73
2022/07/15 13:44:16;;;;;;;0.70;0.30;;;17.60;99.90;;;;;;5023165;28;20251;-73
2022/07/15 13:47:00;;;;;;;4.20;0.53;;;17.60;99.90;;;;;;5019167;28;20346;-72
2022/07/15 13:52:49;;;;;;;0.53;0.40;;;17.70;99.90;;;;;;5024470;28;20188;-73
2022/07/15 13:55:33;;;;;;;1.17;0.30;;;17.60;99.90;;;;;;5030857;28;20218;-73
2022/07/15 13:58:17;;;;;;;1.40;0.50;;;17.50;99.90;;;;;;5030100;28;20180;-72
2022/07/15 14:01:01;;;;;;;2.50;0.43;;;17.60;99.90;;;;;;5024569;28;20195;-73
2022/07/15 14:03:45;;;;;;;1.90;0.50;;;17.60;99.90;;;;;;5032425;28;20212;-73
2022/07/15 14:06:30;;;;;;;1.13;0.40;;;17.70;99.90;;;;;;5024622;28;20219;-73
2022/07/15 14:09:14;;;;;;;1.40;0.40;;;17.70;99.90;;;;;;5027880;28;20187;-73
2022/07/15 14:11:58;;;;;;;2.53;0.50;;;17.70;99.90;;;;;;5031015;28;20187;-73
2022/07/15 14:14:43;;;;;;;0.97;0.40;;;17.80;99.90;;;;;;5025406;28;20246;-73
2022/07/15 14:17:29;;;;;;;0.87;0.30;;;17.80;99.90;;;;;;5021162;28;20215;-73
2022/07/15 14:20:15;;;;;;;1.00;0.60;;;17.80;99.90;;;;;;5030089;28;20226;-73
2022/07/15 14:22:59;;;;;;;2.00;0.30;;;17.80;99.90;;;;;;5028504;28;20261;-73
2022/07/15 14:25:43;;;;;;;0.30;0.23;;;17.90;99.90;;;;;;5029786;28;20762;-73
2022/07/15 14:28:27;;;;;;;0.33;0.33;;;17.90;99.90;;;;;;5018102;28;20191;-73
2022/07/15 14:31:14;;;;;;;1.60;0.40;;;17.90;99.90;;;;;;5027509;28;20253;-73
2022/07/15 14:33:59;;;;;;;0.30;0.27;;;18.00;99.90;;;;;;5029864;28;20253;-73